sensor_id;sensor_type;location;lat;lon;timestamp;pressure;altitude;pressure_sealevel;temperature;humidity
1207;BME280;593;53.184;8.216;2022-12-07T00:01:30;101010.19;;;6.52;100.00
1207;BME280;593;53.184;8.216;2022-12-07T00:03:58;100998.81;;;6.50;100.00
1207;BME280;593;53.184;8.216;2022-12-07T00:06:41;101005.31;;;6.49;100.00
1207;BME280;593;53.184;8.216;2022-12-07T00:09:11;100994.16;;;6.45;100.00
1207;BME280;593;53.184;8.216;2022-12-07T00:11:36;100996.28;;;6.43;100.00
1207;BME280;593;53.184;8.216;2022-12-07T00:14:04;101001.91;;;6.41;100.00
1207;BME280;593;53.184;8.216;2022-12-07T00:16:33;101009.22;;;6.41;100.00
1207;BME280;593;53.184;8.216;2022-12-07T00:18:59;101009.47;;;6.39;100.00
1207;BME280;593;53.184;8.216;2022-12-07T00:21:27;101007.84;;;6.38;100.00
1207;BME280;593;53.184;8.216;2022-12-07T00:23:54;101016.16;;;6.37;100.00
1207;BME280;593;53.184;8.216;2022-12-07T00:26:25;101012.09;;;6.34;100.00
1207;BME280;593;53.184;8.216;2022-12-07T00:28:59;101015.03;;;6.33;100.00
1207;BME280;593;53.184;8.216;2022-12-07T00:31:31;101006.13;;;6.32;100.00
1207;BME280;593;53.184;8.216;2022-12-07T00:33:58;101001.28;;;6.34;100.00
1207;BME280;593;53.184;8.216;2022-12-07T00:36:24;101003.75;;;6.36;100.00
1207;BME280;593;53.184;8.216;2022-12-07T00:38:50;100996.34;;;6.31;100.00
1207;BME280;593;53.184;8.216;2022-12-07T00:41:20;100995.56;;;6.31;100.00
1207;BME280;593;53.184;8.216;2022-12-07T00:43:47;100993.44;;;6.33;100.00
1207;BME280;593;53.184;8.216;2022-12-07T00:46:14;100992.59;;;6.32;100.00
1207;BME280;593;53.184;8.216;2022-12-07T00:48:40;100993.66;;;6.31;100.00
1207;BME280;593;53.184;8.216;2022-12-07T00:51:06;100983.38;;;6.28;100.00
1207;BME280;593;53.184;8.216;2022-12-07T00:53:35;100992.03;;;6.30;100.00
1207;BME280;593;53.184;8.216;2022-12-07T00:56:18;100975.09;;;6.18;100.00
1207;BME280;593;53.184;8.216;2022-12-07T00:58:49;100986.56;;;6.25;100.00
1207;BME280;593;53.184;8.216;2022-12-07T01:01:15;100983.59;;;6.27;100.00
1207;BME280;593;53.184;8.216;2022-12-07T01:03:40;100981.91;;;6.21;100.00
1207;BME280;593;53.184;8.216;2022-12-07T01:06:06;100984.91;;;6.24;100.00
1207;BME280;593;53.184;8.216;2022-12-07T01:08:31;100981.63;;;6.22;100.00
1207;BME280;593;53.184;8.216;2022-12-07T01:10:59;100986.47;;;6.20;100.00
1207;BME280;593;53.184;8.216;2022-12-07T01:13:24;100979.69;;;6.18;100.00
1207;BME280;593;53.184;8.216;2022-12-07T01:15:50;100983.44;;;6.17;100.00
1207;BME280;593;53.184;8.216;2022-12-07T01:18:15;100979.13;;;6.16;100.00
1207;BME280;593;53.184;8.216;2022-12-07T01:20:40;100969.28;;;6.10;100.00
1207;BME280;593;53.184;8.216;2022-12-07T01:23:06;100983.34;;;6.12;100.00
1207;BME280;593;53.184;8.216;2022-12-07T01:25:31;100979.81;;;6.11;100.00
1207;BME280;593;53.184;8.216;2022-12-07T01:27:57;100977.66;;;6.08;100.00
1207;BME280;593;53.184;8.216;2022-12-07T01:30:22;100982.69;;;6.05;100.00
1207;BME280;593;53.184;8.216;2022-12-07T01:32:48;100976.72;;;6.03;100.00
1207;BME280;593;53.184;8.216;2022-12-07T01:35:13;100980.75;;;6.00;100.00
1207;BME280;593;53.184;8.216;2022-12-07T01:37:39;100992.59;;;5.99;100.00
1207;BME280;593;53.184;8.216;2022-12-07T01:40:06;100989.31;;;5.97;100.00
1207;BME280;593;53.184;8.216;2022-12-07T01:42:32;100980.41;;;5.97;100.00
1207;BME280;593;53.184;8.216;2022-12-07T01:47:43;100977.38;;;5.93;100.00
1207;BME280;593;53.184;8.216;2022-12-07T01:50:09;100977.13;;;5.95;100.00
1207;BME280;593;53.184;8.216;2022-12-07T01:52:36;100971.16;;;5.93;100.00
1207;BME280;593;53.184;8.216;2022-12-07T01:55:07;100974.91;;;5.92;100.00
1207;BME280;593;53.184;8.216;2022-12-07T01:57:35;100968.38;;;5.88;100.00
1207;BME280;593;53.184;8.216;2022-12-07T02:00:05;100967.63;;;5.92;100.00
1207;BME280;593;53.184;8.216;2022-12-07T02:02:33;100962.16;;;5.87;100.00
1207;BME280;593;53.184;8.216;2022-12-07T02:05:01;100967.63;;;5.92;100.00
1207;BME280;593;53.184;8.216;2022-12-07T02:07:28;100969.78;;;5.90;100.00
1207;BME280;593;53.184;8.216;2022-12-07T02:09:54;100973.03;;;5.92;100.00
1207;BME280;593;53.184;8.216;2022-12-07T02:12:20;100951.22;;;5.94;100.00
1207;BME280;593;53.184;8.216;2022-12-07T02:14:47;100964.19;;;5.97;100.00
1207;BME280;593;53.184;8.216;2022-12-07T02:17:32;100962.09;;;5.99;100.00
1207;BME280;593;53.184;8.216;2022-12-07T02:20:27;100961.28;;;5.98;100.00
1207;BME280;593;53.184;8.216;2022-12-07T02:25:56;100955.88;;;5.98;100.00
1207;BME280;593;53.184;8.216;2022-12-07T02:28:33;100952.91;;;6.00;100.00
1207;BME280;593;53.184;8.216;2022-12-07T02:31:05;100948.50;;;5.94;100.00
1207;BME280;593;53.184;8.216;2022-12-07T02:33:42;100951.78;;;5.96;100.00
1207;BME280;593;53.184;8.216;2022-12-07T02:36:15;100943.69;;;5.96;100.00
1207;BME280;593;53.184;8.216;2022-12-07T02:38:51;100930.41;;;5.94;100.00
1207;BME280;593;53.184;8.216;2022-12-07T02:41:27;100925.84;;;5.95;100.00
1207;BME280;593;53.184;8.216;2022-12-07T02:43:57;100934.75;;;5.95;100.00
1207;BME280;593;53.184;8.216;2022-12-07T02:46:27;100933.72;;;5.96;100.00
1207;BME280;593;53.184;8.216;2022-12-07T02:48:54;100929.09;;;5.97;100.00
1207;BME280;593;53.184;8.216;2022-12-07T02:51:21;100929.38;;;5.95;100.00
1207;BME280;593;53.184;8.216;2022-12-07T02:53:46;100929.38;;;5.95;100.00
1207;BME280;593;53.184;8.216;2022-12-07T03:02:08;100934.41;;;5.92;100.00
1207;BME280;593;53.184;8.216;2022-12-07T03:05:07;100941.38;;;5.88;100.00
1207;BME280;593;53.184;8.216;2022-12-07T03:13:30;100926.63;;;5.78;100.00
1207;BME280;593;53.184;8.216;2022-12-07T03:18:44;100928.50;;;5.78;100.00
1207;BME280;593;53.184;8.216;2022-12-07T03:21:17;100917.47;;;5.79;100.00
1207;BME280;593;53.184;8.216;2022-12-07T03:23:45;100918.75;;;5.77;100.00
1207;BME280;593;53.184;8.216;2022-12-07T03:26:14;100921.72;;;5.75;100.00
1207;BME280;593;53.184;8.216;2022-12-07T03:28:46;100918.75;;;5.77;100.00
1207;BME280;593;53.184;8.216;2022-12-07T03:31:21;100927.13;;;5.75;100.00
1207;BME280;593;53.184;8.216;2022-12-07T03:33:53;100933.34;;;5.76;100.00
1207;BME280;593;53.184;8.216;2022-12-07T03:36:40;100927.13;;;5.75;100.00
1207;BME280;593;53.184;8.216;2022-12-07T03:39:44;100923.03;;;5.73;100.00
1207;BME280;593;53.184;8.216;2022-12-07T03:42:07;100925.38;;;5.69;100.00
1207;BME280;593;53.184;8.216;2022-12-07T03:44:35;100922.94;;;5.68;100.00
1207;BME280;593;53.184;8.216;2022-12-07T03:47:05;100922.38;;;5.66;100.00
1207;BME280;593;53.184;8.216;2022-12-07T03:49:48;100933.72;;;5.68;100.00
1207;BME280;593;53.184;8.216;2022-12-07T03:52:25;100932.34;;;5.65;100.00
1207;BME280;593;53.184;8.216;2022-12-07T03:57:25;100928.72;;;5.60;100.00
1207;BME280;593;53.184;8.216;2022-12-07T03:59:51;100929.56;;;5.60;100.00
1207;BME280;593;53.184;8.216;2022-12-07T04:02:18;100926.50;;;5.57;100.00
1207;BME280;593;53.184;8.216;2022-12-07T04:04:45;100932.47;;;5.59;100.00
1207;BME280;593;53.184;8.216;2022-12-07T04:07:10;100924.53;;;5.52;100.00
1207;BME280;593;53.184;8.216;2022-12-07T04:09:36;100931.25;;;5.50;100.00
1207;BME280;593;53.184;8.216;2022-12-07T04:12:01;100932.63;;;5.52;100.00
1207;BME280;593;53.184;8.216;2022-12-07T04:14:26;100928.91;;;5.53;100.00
1207;BME280;593;53.184;8.216;2022-12-07T04:16:54;100931.00;;;5.51;100.00
1207;BME280;593;53.184;8.216;2022-12-07T04:19:27;100926.91;;;5.49;100.00
1207;BME280;593;53.184;8.216;2022-12-07T04:21:53;100928.19;;;5.46;100.00
1207;BME280;593;53.184;8.216;2022-12-07T04:24:18;100938.69;;;5.43;100.00
1207;BME280;593;53.184;8.216;2022-12-07T04:26:44;100944.88;;;5.43;100.00
1207;BME280;593;53.184;8.216;2022-12-07T04:29:10;100942.91;;;5.39;100.00
1207;BME280;593;53.184;8.216;2022-12-07T04:31:36;100947.72;;;5.37;100.00
1207;BME280;593;53.184;8.216;2022-12-07T04:34:02;100938.81;;;5.36;100.00
1207;BME280;593;53.184;8.216;2022-12-07T04:36:28;100936.34;;;5.35;100.00
1207;BME280;593;53.184;8.216;2022-12-07T04:38:54;100937.41;;;5.34;100.00
1207;BME280;593;53.184;8.216;2022-12-07T04:41:21;100936.84;;;5.32;100.00
1207;BME280;593;53.184;8.216;2022-12-07T04:44:00;100930.63;;;5.31;100.00
1207;BME280;593;53.184;8.216;2022-12-07T04:46:27;100927.69;;;5.33;100.00
1207;BME280;593;53.184;8.216;2022-12-07T04:48:53;100919.81;;;5.31;100.00
1207;BME280;593;53.184;8.216;2022-12-07T04:51:22;100926.03;;;5.32;100.00
1207;BME280;593;53.184;8.216;2022-12-07T04:53:48;100928.53;;;5.33;100.00
1207;BME280;593;53.184;8.216;2022-12-07T04:56:14;100923.13;;;5.33;100.00
1207;BME280;593;53.184;8.216;2022-12-07T04:58:41;100921.81;;;5.36;100.00
1207;BME280;593;53.184;8.216;2022-12-07T05:01:06;100919.34;;;5.34;100.00
1207;BME280;593;53.184;8.216;2022-12-07T05:03:32;100910.44;;;5.34;100.00
1207;BME280;593;53.184;8.216;2022-12-07T05:05:57;100915.59;;;5.35;100.00
1207;BME280;593;53.184;8.216;2022-12-07T05:08:22;100906.13;;;5.33;100.00
1207;BME280;593;53.184;8.216;2022-12-07T05:10:51;100907.75;;;5.34;100.00
1207;BME280;593;53.184;8.216;2022-12-07T05:13:16;100912.91;;;5.35;100.00
1207;BME280;593;53.184;8.216;2022-12-07T05:15:41;100907.75;;;5.34;100.00
1207;BME280;593;53.184;8.216;2022-12-07T05:18:09;100894.69;;;5.26;100.00
1207;BME280;593;53.184;8.216;2022-12-07T05:20:35;100909.03;;;5.31;100.00
1207;BME280;593;53.184;8.216;2022-12-07T05:23:00;100906.13;;;5.33;100.00
1207;BME280;593;53.184;8.216;2022-12-07T05:25:25;100906.13;;;5.33;100.00
1207;BME280;593;53.184;8.216;2022-12-07T05:27:51;100903.44;;;5.33;100.00
1207;BME280;593;53.184;8.216;2022-12-07T05:30:16;100918.53;;;5.34;100.00
1207;BME280;593;53.184;8.216;2022-12-07T05:32:41;100910.94;;;5.31;100.00
1207;BME280;593;53.184;8.216;2022-12-07T05:35:07;100916.09;;;5.32;100.00
1207;BME280;593;53.184;8.216;2022-12-07T05:37:33;100914.44;;;5.31;100.00
1207;BME280;593;53.184;8.216;2022-12-07T05:39:58;100911.75;;;5.31;100.00
1207;BME280;593;53.184;8.216;2022-12-07T05:42:23;100907.66;;;5.29;100.00
1207;BME280;593;53.184;8.216;2022-12-07T05:44:49;100904.94;;;5.29;100.00
1207;BME280;593;53.184;8.216;2022-12-07T05:47:14;100906.84;;;5.28;100.00
1207;BME280;593;53.184;8.216;2022-12-07T05:49:40;100900.06;;;5.26;100.00
1207;BME280;593;53.184;8.216;2022-12-07T05:52:05;100896.75;;;5.24;100.00
1207;BME280;593;53.184;8.216;2022-12-07T05:54:31;100901.69;;;5.27;100.00
1207;BME280;593;53.184;8.216;2022-12-07T05:56:56;100901.13;;;5.25;100.00
1207;BME280;593;53.184;8.216;2022-12-07T05:59:22;100909.19;;;5.25;100.00
1207;BME280;593;53.184;8.216;2022-12-07T06:01:49;100915.31;;;5.20;100.00
1207;BME280;593;53.184;8.216;2022-12-07T06:04:14;100906.97;;;5.22;100.00
1207;BME280;593;53.184;8.216;2022-12-07T06:06:39;100913.19;;;5.22;100.00
1207;BME280;593;53.184;8.216;2022-12-07T06:09:05;100907.81;;;5.22;100.00
1207;BME280;593;53.184;8.216;2022-12-07T06:11:31;100916.72;;;5.23;100.00
1207;BME280;593;53.184;8.216;2022-12-07T06:14:15;100910.25;;;5.24;100.00
1207;BME280;593;53.184;8.216;2022-12-07T06:16:40;100902.16;;;5.24;100.00
1207;BME280;593;53.184;8.216;2022-12-07T06:19:06;100893.28;;;5.23;100.00
1207;BME280;593;53.184;8.216;2022-12-07T06:21:31;100900.53;;;5.23;100.00
1207;BME280;593;53.184;8.216;2022-12-07T06:23:56;100906.50;;;5.25;100.00
1207;BME280;593;53.184;8.216;2022-12-07T06:26:22;100903.81;;;5.25;100.00
1207;BME280;593;53.184;8.216;2022-12-07T06:28:47;100911.41;;;5.28;100.00
1207;BME280;593;53.184;8.216;2022-12-07T06:31:13;100913.03;;;5.29;100.00
1207;BME280;593;53.184;8.216;2022-12-07T06:33:38;100919.50;;;5.28;100.00
1207;BME280;593;53.184;8.216;2022-12-07T06:36:03;100920.00;;;5.25;100.00
1207;BME280;593;53.184;8.216;2022-12-07T06:38:29;100929.22;;;5.29;100.00
1207;BME280;593;53.184;8.216;2022-12-07T06:40:54;100932.53;;;5.31;100.00
1207;BME280;593;53.184;8.216;2022-12-07T06:43:19;100942.56;;;5.35;100.00
1207;BME280;593;53.184;8.216;2022-12-07T06:45:45;100947.72;;;5.37;100.00
1207;BME280;593;53.184;8.216;2022-12-07T06:48:10;100946.66;;;5.38;100.00
1207;BME280;593;53.184;8.216;2022-12-07T06:50:36;100939.97;;;5.40;100.00
1207;BME280;593;53.184;8.216;2022-12-07T06:53:01;100924.38;;;5.42;100.00
1207;BME280;593;53.184;8.216;2022-12-07T06:55:26;100926.00;;;5.43;100.00
1207;BME280;593;53.184;8.216;2022-12-07T06:57:52;100933.03;;;5.44;100.00
1207;BME280;593;53.184;8.216;2022-12-07T07:00:17;100932.81;;;5.46;100.00
1207;BME280;593;53.184;8.216;2022-12-07T07:02:43;100937.38;;;5.45;100.00
1207;BME280;593;53.184;8.216;2022-12-07T07:05:08;100936.91;;;5.48;100.00
1207;BME280;593;53.184;8.216;2022-12-07T07:07:33;100942.50;;;5.47;100.00
1207;BME280;593;53.184;8.216;2022-12-07T07:09:59;100943.34;;;5.47;100.00
1207;BME280;593;53.184;8.216;2022-12-07T07:12:24;100951.69;;;5.46;100.00
1207;BME280;593;53.184;8.216;2022-12-07T07:14:49;100941.94;;;5.45;100.00
1207;BME280;593;53.184;8.216;2022-12-07T07:17:15;100937.38;;;5.45;100.00
1207;BME280;593;53.184;8.216;2022-12-07T07:19:40;100936.53;;;5.45;100.00
1207;BME280;593;53.184;8.216;2022-12-07T07:22:06;100925.19;;;5.43;100.00
1207;BME280;593;53.184;8.216;2022-12-07T07:24:31;100935.97;;;5.43;100.00
1207;BME280;593;53.184;8.216;2022-12-07T07:26:57;100930.81;;;5.41;100.00
1207;BME280;593;53.184;8.216;2022-12-07T07:29:22;100938.09;;;5.41;100.00
1207;BME280;593;53.184;8.216;2022-12-07T07:31:48;100921.31;;;5.39;100.00
1207;BME280;593;53.184;8.216;2022-12-07T07:34:13;100934.22;;;5.37;100.00
1207;BME280;593;53.184;8.216;2022-12-07T07:36:39;100933.66;;;5.35;100.00
1207;BME280;593;53.184;8.216;2022-12-07T07:39:04;100934.13;;;5.32;100.00
1207;BME280;593;53.184;8.216;2022-12-07T07:41:30;100938.72;;;5.31;100.00
1207;BME280;593;53.184;8.216;2022-12-07T07:43:56;100932.66;;;5.24;100.00
1207;BME280;593;53.184;8.216;2022-12-07T07:46:22;100936.16;;;5.25;100.00
1207;BME280;593;53.184;8.216;2022-12-07T07:48:48;100937.47;;;5.22;100.00
1207;BME280;593;53.184;8.216;2022-12-07T07:51:13;100936.91;;;5.20;100.00
1207;BME280;593;53.184;8.216;2022-12-07T07:53:39;100943.09;;;5.21;100.00
1207;BME280;593;53.184;8.216;2022-12-07T07:56:04;100947.91;;;5.18;100.00
1207;BME280;593;53.184;8.216;2022-12-07T07:58:29;100947.31;;;5.16;100.00
1207;BME280;593;53.184;8.216;2022-12-07T08:00:55;100951.91;;;5.16;100.00
1207;BME280;593;53.184;8.216;2022-12-07T08:03:20;100952.16;;;5.14;100.00
1207;BME280;593;53.184;8.216;2022-12-07T08:05:46;100955.66;;;5.15;100.00
1207;BME280;593;53.184;8.216;2022-12-07T08:08:11;100956.72;;;5.14;100.00
1207;BME280;593;53.184;8.216;2022-12-07T08:10:37;100944.53;;;5.11;100.00
1207;BME280;593;53.184;8.216;2022-12-07T08:13:02;100948.41;;;5.15;100.00
1207;BME280;593;53.184;8.216;2022-12-07T08:15:40;100947.22;;;5.11;100.00
1207;BME280;593;53.184;8.216;2022-12-07T08:18:06;100939.13;;;5.11;100.00
1207;BME280;593;53.184;8.216;2022-12-07T08:20:32;100947.94;;;5.07;100.00
1207;BME280;593;53.184;8.216;2022-12-07T08:22:59;100952.63;;;5.11;100.00
1207;BME280;593;53.184;8.216;2022-12-07T08:25:25;100955.09;;;5.13;100.00
1207;BME280;593;53.184;8.216;2022-12-07T08:27:51;100955.09;;;5.13;100.00
1207;BME280;593;53.184;8.216;2022-12-07T08:30:17;100952.97;;;5.15;100.00
1207;BME280;593;53.184;8.216;2022-12-07T08:32:44;100956.50;;;5.15;100.00
1207;BME280;593;53.184;8.216;2022-12-07T08:35:09;100957.88;;;5.18;100.00
1207;BME280;593;53.184;8.216;2022-12-07T08:37:35;100962.19;;;5.19;100.00
1207;BME280;593;53.184;8.216;2022-12-07T08:40:00;100952.50;;;5.18;100.00
1207;BME280;593;53.184;8.216;2022-12-07T08:42:26;100952.81;;;5.22;100.00
1207;BME280;593;53.184;8.216;2022-12-07T08:44:55;100963.59;;;5.22;100.00
1207;BME280;593;53.184;8.216;2022-12-07T08:47:23;100956.09;;;5.24;100.00
1207;BME280;593;53.184;8.216;2022-12-07T08:49:50;100955.75;;;5.20;100.00
1207;BME280;593;53.184;8.216;2022-12-07T08:52:17;100956.69;;;5.26;100.00
1207;BME280;593;53.184;8.216;2022-12-07T08:54:43;100960.44;;;5.25;100.00
1207;BME280;593;53.184;8.216;2022-12-07T08:57:10;100966.19;;;5.28;100.00
1207;BME280;593;53.184;8.216;2022-12-07T08:59:36;100976.22;;;5.33;100.00
1207;BME280;593;53.184;8.216;2022-12-07T09:02:02;100971.06;;;5.31;100.00
1207;BME280;593;53.184;8.216;2022-12-07T09:04:27;100958.88;;;5.29;100.00
1207;BME280;593;53.184;8.216;2022-12-07T09:06:53;100960.63;;;5.35;100.00
1207;BME280;593;53.184;8.216;2022-12-07T09:09:19;100958.50;;;5.37;100.00
1207;BME280;593;53.184;8.216;2022-12-07T09:11:44;100960.63;;;5.35;100.00
1207;BME280;593;53.184;8.216;2022-12-07T09:14:10;100970.13;;;5.37;100.00
1207;BME280;593;53.184;8.216;2022-12-07T09:16:37;100960.97;;;5.38;100.00
1207;BME280;593;53.184;8.216;2022-12-07T09:19:03;100960.16;;;5.38;100.00
1207;BME280;593;53.184;8.216;2022-12-07T09:21:28;100958.28;;;5.38;100.00
1207;BME280;593;53.184;8.216;2022-12-07T09:23:53;100957.78;;;5.41;100.00
1207;BME280;593;53.184;8.216;2022-12-07T09:26:19;100956.72;;;5.42;100.00
1207;BME280;593;53.184;8.216;2022-12-07T09:28:44;100954.13;;;5.47;100.00
1207;BME280;593;53.184;8.216;2022-12-07T09:31:09;100956.34;;;5.50;100.00
1207;BME280;593;53.184;8.216;2022-12-07T09:33:34;100961.25;;;5.53;100.00
1207;BME280;593;53.184;8.216;2022-12-07T09:36:00;100962.41;;;5.57;100.00
1207;BME280;593;53.184;8.216;2022-12-07T09:38:25;100957.84;;;5.58;100.00
1207;BME280;593;53.184;8.216;2022-12-07T09:40:52;100963.53;;;5.61;100.00
1207;BME280;593;53.184;8.216;2022-12-07T09:43:22;100954.75;;;5.66;100.00
1207;BME280;593;53.184;8.216;2022-12-07T09:45:50;100937.38;;;5.62;100.00
1207;BME280;593;53.184;8.216;2022-12-07T09:48:30;100951.78;;;5.67;100.00
1207;BME280;593;53.184;8.216;2022-12-07T09:50:58;100947.78;;;5.70;100.00
1207;BME280;593;53.184;8.216;2022-12-07T09:53:33;100953.75;;;5.72;100.00
1207;BME280;593;53.184;8.216;2022-12-07T09:56:00;100957.84;;;5.74;100.00
1207;BME280;593;53.184;8.216;2022-12-07T09:58:28;100959.50;;;5.75;100.00
1207;BME280;593;53.184;8.216;2022-12-07T10:01:00;100968.16;;;5.77;100.00
1207;BME280;593;53.184;8.216;2022-12-07T10:03:27;100953.63;;;5.78;100.00
1207;BME280;593;53.184;8.216;2022-12-07T10:05:54;100934.72;;;5.78;100.00
1207;BME280;593;53.184;8.216;2022-12-07T10:08:20;100937.28;;;5.85;100.00
1207;BME280;593;53.184;8.216;2022-12-07T10:10:52;100935.63;;;5.84;100.00
1207;BME280;593;53.184;8.216;2022-12-07T10:13:33;100940.06;;;5.90;100.00
1207;BME280;593;53.184;8.216;2022-12-07T10:15:58;100934.69;;;5.90;100.00
1207;BME280;593;53.184;8.216;2022-12-07T10:18:38;100934.41;;;5.92;100.00
1207;BME280;593;53.184;8.216;2022-12-07T10:23:39;100934.03;;;6.00;100.00
1207;BME280;593;53.184;8.216;2022-12-07T10:26:27;100937.63;;;6.05;100.00
1207;BME280;593;53.184;8.216;2022-12-07T10:28:54;100937.38;;;6.07;100.00
1207;BME280;593;53.184;8.216;2022-12-07T10:31:22;100936.88;;;6.10;100.00
1207;BME280;593;53.184;8.216;2022-12-07T10:33:53;100936.63;;;6.11;100.00
1207;BME280;593;53.184;8.216;2022-12-07T10:38:50;100917.56;;;6.18;100.00
1207;BME280;593;53.184;8.216;2022-12-07T10:41:16;100912.75;;;6.20;100.00
1207;BME280;593;53.184;8.216;2022-12-07T10:43:50;100916.25;;;6.20;100.00
1207;BME280;593;53.184;8.216;2022-12-07T10:51:46;100918.09;;;6.36;100.00
1207;BME280;593;53.184;8.216;2022-12-07T11:00:03;100909.03;;;6.42;100.00
1207;BME280;593;53.184;8.216;2022-12-07T11:08:00;100917.34;;;6.58;100.00
1207;BME280;593;53.184;8.216;2022-12-07T11:13:25;100926.34;;;6.63;100.00
1207;BME280;593;53.184;8.216;2022-12-07T11:21:27;100886.91;;;6.67;100.00
1207;BME280;593;53.184;8.216;2022-12-07T11:23:57;100892.88;;;6.69;100.00
1207;BME280;593;53.184;8.216;2022-12-07T11:26:39;100884.53;;;6.71;100.00
1207;BME280;593;53.184;8.216;2022-12-07T11:29:44;100887.53;;;6.74;100.00
1207;BME280;593;53.184;8.216;2022-12-07T11:35:02;100871.91;;;6.76;100.00
1207;BME280;593;53.184;8.216;2022-12-07T11:37:34;100864.94;;;6.80;100.00
1207;BME280;593;53.184;8.216;2022-12-07T11:40:19;100865.47;;;6.82;100.00
1207;BME280;593;53.184;8.216;2022-12-07T11:42:51;100863.09;;;6.86;100.00
1207;BME280;593;53.184;8.216;2022-12-07T11:45:27;100862.00;;;6.87;100.00
1207;BME280;593;53.184;8.216;2022-12-07T11:47:58;100858.25;;;6.88;100.00
1207;BME280;593;53.184;8.216;2022-12-07T11:50:45;100859.13;;;6.93;100.00
1207;BME280;593;53.184;8.216;2022-12-07T11:56:03;100847.00;;;6.96;100.00
1207;BME280;593;53.184;8.216;2022-12-07T11:58:49;100845.09;;;6.96;100.00
1207;BME280;593;53.184;8.216;2022-12-07T12:06:40;100834.03;;;6.98;100.00
1207;BME280;593;53.184;8.216;2022-12-07T12:17:40;100824.88;;;7.04;100.00
1207;BME280;593;53.184;8.216;2022-12-07T12:20:20;100813.78;;;7.00;100.00
1207;BME280;593;53.184;8.216;2022-12-07T12:25:39;100811.41;;;7.09;100.00
1207;BME280;593;53.184;8.216;2022-12-07T12:28:05;100819.53;;;7.09;100.00
1207;BME280;593;53.184;8.216;2022-12-07T12:33:03;100814.50;;;7.18;100.00
1207;BME280;593;53.184;8.216;2022-12-07T12:35:35;100809.34;;;7.16;100.00
1207;BME280;593;53.184;8.216;2022-12-07T12:38:28;100809.34;;;7.16;100.00
1207;BME280;593;53.184;8.216;2022-12-07T12:40:55;100809.84;;;7.13;100.00
1207;BME280;593;53.184;8.216;2022-12-07T12:43:43;100812.59;;;7.18;100.00
1207;BME280;593;53.184;8.216;2022-12-07T12:46:48;100810.13;;;7.17;100.00
1207;BME280;593;53.184;8.216;2022-12-07T12:51:43;100810.97;;;7.17;100.00
1207;BME280;593;53.184;8.216;2022-12-07T12:54:20;100813.66;;;7.17;100.00
1207;BME280;593;53.184;8.216;2022-12-07T12:59:33;100828.84;;;7.18;100.00
1207;BME280;593;53.184;8.216;2022-12-07T13:02:26;100820.44;;;7.20;100.00
1207;BME280;593;53.184;8.216;2022-12-07T13:04:59;100826.94;;;7.19;100.00
1207;BME280;593;53.184;8.216;2022-12-07T13:10:50;100824.47;;;7.17;100.00
1207;BME280;593;53.184;8.216;2022-12-07T13:23:36;100802.78;;;7.12;100.00
1207;BME280;593;53.184;8.216;2022-12-07T13:26:13;100802.56;;;7.14;100.00
1207;BME280;593;53.184;8.216;2022-12-07T13:28:43;100800.09;;;7.12;100.00
1207;BME280;593;53.184;8.216;2022-12-07T13:34:04;100795.50;;;7.13;100.00
1207;BME280;593;53.184;8.216;2022-12-07T13:36:37;100779.22;;;7.07;100.00
1207;BME280;593;53.184;8.216;2022-12-07T13:41:43;100798.47;;;7.11;100.00
1207;BME280;593;53.184;8.216;2022-12-07T13:44:11;100797.91;;;7.09;100.00
1207;BME280;593;53.184;8.216;2022-12-07T13:47:14;100805.78;;;7.10;100.00
1207;BME280;593;53.184;8.216;2022-12-07T13:49:37;100800.34;;;7.10;100.00
1207;BME280;593;53.184;8.216;2022-12-07T13:52:17;100801.94;;;7.06;100.00
1207;BME280;593;53.184;8.216;2022-12-07T13:54:49;100809.81;;;7.08;100.00
1207;BME280;593;53.184;8.216;2022-12-07T13:57:17;100805.44;;;7.07;100.00
1207;BME280;593;53.184;8.216;2022-12-07T13:59:43;100801.38;;;7.04;100.00
1207;BME280;593;53.184;8.216;2022-12-07T14:02:28;100802.19;;;7.05;100.00
1207;BME280;593;53.184;8.216;2022-12-07T14:05:24;100804.34;;;7.03;100.00
1207;BME280;593;53.184;8.216;2022-12-07T14:07:57;100798.72;;;7.09;100.00
1207;BME280;593;53.184;8.216;2022-12-07T14:10:28;100801.97;;;7.11;100.00
1207;BME280;593;53.184;8.216;2022-12-07T14:12:56;100796.84;;;7.10;100.00
1207;BME280;593;53.184;8.216;2022-12-07T14:15:25;100783.25;;;7.05;100.00
1207;BME280;593;53.184;8.216;2022-12-07T14:17:54;100797.84;;;7.04;100.00
1207;BME280;593;53.184;8.216;2022-12-07T14:20:36;100805.41;;;7.02;100.00
1207;BME280;593;53.184;8.216;2022-12-07T14:23:03;100804.84;;;7.00;100.00
1207;BME280;593;53.184;8.216;2022-12-07T14:25:45;100798.31;;;6.96;100.00
1207;BME280;593;53.184;8.216;2022-12-07T14:28:29;100798.28;;;6.91;100.00
1207;BME280;593;53.184;8.216;2022-12-07T14:30:54;100777.56;;;6.75;100.00
1207;BME280;593;53.184;8.216;2022-12-07T14:33:20;100790.34;;;6.84;100.00
1207;BME280;593;53.184;8.216;2022-12-07T14:35:47;100782.78;;;6.81;100.00
1207;BME280;593;53.184;8.216;2022-12-07T14:38:12;100780.56;;;6.78;100.00
1207;BME280;593;53.184;8.216;2022-12-07T14:40:38;100765.00;;;6.64;100.00
1207;BME280;593;53.184;8.216;2022-12-07T14:43:15;100767.84;;;6.74;100.00
1207;BME280;593;53.184;8.216;2022-12-07T14:45:41;100770.47;;;6.69;100.00
1207;BME280;593;53.184;8.216;2022-12-07T14:48:11;100772.34;;;6.68;100.00
1207;BME280;593;53.184;8.216;2022-12-07T14:50:40;100773.69;;;6.66;100.00
1207;BME280;593;53.184;8.216;2022-12-07T14:53:15;100775.25;;;6.62;100.00
1207;BME280;593;53.184;8.216;2022-12-07T14:55:42;100767.91;;;6.57;100.00
1207;BME280;593;53.184;8.216;2022-12-07T14:58:15;100771.69;;;6.56;100.00
1207;BME280;593;53.184;8.216;2022-12-07T15:00:41;100771.63;;;6.51;100.00
1207;BME280;593;53.184;8.216;2022-12-07T15:03:08;100765.41;;;6.51;100.00
1207;BME280;593;53.184;8.216;2022-12-07T15:05:34;100765.63;;;6.49;100.00
1207;BME280;593;53.184;8.216;2022-12-07T15:08:00;100771.81;;;6.44;100.00
1207;BME280;593;53.184;8.216;2022-12-07T15:10:29;100776.91;;;6.41;100.00
1207;BME280;593;53.184;8.216;2022-12-07T15:12:57;100767.94;;;6.35;100.00
1207;BME280;593;53.184;8.216;2022-12-07T15:15:42;100781.16;;;6.37;100.00